Johann Essberger — CQKG — position and weather

sailwx.info

Track history (hours):
 
Tides and Currents Weather Stations Pressure Air Temp Water Temp Dewpoint Dewpoint Depression Visibility Wind Speed Wind Dir Waves Ship Positions

Johann Essberger

Last reported at 2014-Jul-28 19:09 UTC. Time now 2014-Jul-28 20:41 UTC.
Position N 53°39' E 009°31'.

Length 100 m; draft 6.5 m.

Type: Ship (hazmat cat B). MMSI: 255804460.

Date/timePositionNaut miles runAvg speedWind from/ knotsBaromVisibWave heightAir tempDewpointWater temp
2014-Jul-28 19:09N 53°39' E 009°31'1 1.9
2014-Jul-28 18:33N 53°40' E 009°30'0 0.3
2014-Jul-28 17:08N 53°41' E 009°30'0 0.0
2014-Jul-28 09:29N 53°41' E 009°30'0 0.0
2014-Jul-28 07:29N 53°41' E 009°30'0 0.0
2014-Jul-28 06:29N 53°41' E 009°30'0 0.0
2014-Jul-28 05:29N 53°41' E 009°30'0 0.0
2014-Jul-28 04:32N 53°41' E 009°30'0 0.1
2014-Jul-28 03:34N 53°40' E 009°30'2 1.5
2014-Jul-28 02:33N 53°39' E 009°31'  
2014-Jul-25 13:33N 53°39' E 009°31'10 9.6
2014-Jul-25 12:33N 53°47' E 009°23'1312.6
2014-Jul-25 11:33N 53°52' E 009°03'1313.0
2014-Jul-25 10:33N 53°54' E 008°41'1514.7
2014-Jul-25 09:33N 53°60' E 008°18'1212.2
2014-Jul-25 08:33N 54°02' E 007°57'1212.3
2014-Jul-25 07:33N 54°07' E 007°39'1212.1
2014-Jul-25 06:33N 54°09' E 007°19'1712.0
2014-Jul-25 05:10N 54°08' E 006°50'711.3
2014-Jul-25 04:33N 54°08' E 006°38'1110.9
2014-Jul-25 03:33N 54°08' E 006°20'1110.7
2014-Jul-25 02:33N 54°06' E 006°02'1010.4
2014-Jul-25 01:33N 54°05' E 005°44'1110.6
2014-Jul-25 00:33N 53°58' E 005°31'1110.5
2014-Jul-24 23:33N 53°51' E 005°17'1010.5
2014-Jul-24 22:33N 53°44' E 005°04'1010.4
2014-Jul-24 21:33N 53°37' E 004°51'1010.1
2014-Jul-24 20:33N 53°27' E 004°45'1010.2
2014-Jul-24 19:32N 53°18' E 004°38'1010.5
2014-Jul-24 18:33N 53°08' E 004°30'1110.9
2014-Jul-24 17:33N 52°59' E 004°21'1111.3
2014-Jul-24 16:33N 52°49' E 004°13'1211.6
2014-Jul-24 15:33N 52°41' E 004°00'1211.8
2014-Jul-24 14:33N 52°32' E 003°46'1111.3
2014-Jul-24 13:33N 52°22' E 003°38'1212.0
2014-Jul-24 12:33N 52°11' E 003°31'1212.0
2014-Jul-24 11:31N 51°59' E 003°23'1111.5
2014-Jul-24 10:33N 51°49' E 003°17'10 9.5
2014-Jul-24 09:32N 51°40' E 003°20'1111.2
2014-Jul-24 08:33N 51°30' E 003°29'9 9.5
2014-Jul-24 07:34N 51°25' E 003°42'10 9.8
2014-Jul-24 06:33N 51°25' E 003°58'1010.2
2014-Jul-24 05:34N 51°22' E 004°13'5 4.7
2014-Jul-24 04:34N 51°18' E 004°17'0 0.0
2014-Jul-23 13:14N 51°18' E 004°17'0 0.4
2014-Jul-23 12:34N 51°18' E 004°17'2 2.1
2014-Jul-23 11:34N 51°17' E 004°20'1 1.5
2014-Jul-23 10:32N 51°15' E 004°22'0 0.0
2014-Jul-21 19:29N 51°15' E 004°22'3 1.2
2014-Jul-21 17:20N 51°18' E 004°20'0 0.0
2014-Jul-20 21:30N 51°18' E 004°20'1 1.2
2014-Jul-20 20:34N 51°17' E 004°20'4 4.3
2014-Jul-20 19:34N 51°20' E 004°16'8 8.3
2014-Jul-20 18:34N 51°22' E 004°03'6 6.4
2014-Jul-20 17:33N 51°21' E 003°53'1010.0
2014-Jul-20 16:33N 51°26' E 003°40'1211.5
2014-Jul-20 15:33N 51°33' E 003°25'1514.0
2014-Jul-20 14:29N 51°47' E 003°14'5413.6
2014-Jul-20 10:29N 52°39' E 003°35'1010.8
2014-Jul-20 09:33N 52°48' E 003°44'10 9.9
2014-Jul-20 08:32N 52°55' E 003°55'4411.1
2014-Jul-20 04:33N 53°29' E 004°41'1211.6
2014-Jul-20 03:33N 53°34' E 004°59'1110.8
2014-Jul-20 02:33N 53°38' E 005°16'1010.0
2014-Jul-20 01:33N 53°41' E 005°33'1010.2
2014-Jul-20 00:33N 53°44' E 005°49'1110.6
2014-Jul-19 23:33N 53°47' E 006°06'1111.2
2014-Jul-19 22:33N 53°50' E 006°24'1212.1
2014-Jul-19 21:33N 53°53' E 006°44'1612.5
2014-Jul-19 20:18N 53°57' E 007°10'1112.5
2014-Jul-19 19:25N 53°60' E 007°28'1112.1
2014-Jul-19 18:33N 54°02' E 007°45'1211.8
2014-Jul-19 17:33N 54°01' E 008°05'1313.1
2014-Jul-19 16:34N 53°59' E 008°27'1111.3
2014-Jul-19 15:33N 53°53' E 008°43'10 9.9
2014-Jul-19 14:33N 53°51' E 008°60'6 5.5
2014-Jul-19 13:31N 53°54' E 009°09'5 5.5
2014-Jul-19 12:33N 53°57' E 009°15'6 6.0
2014-Jul-19 11:33N 54°03' E 009°18'35 5.5
2014-Jul-19 05:12N 54°22' E 010°09'3 5.0
2014-Jul-19 04:31N 54°24' E 010°12'1111.1
2014-Jul-19 03:33N 54°32' E 010°25'9 9.1
2014-Jul-19 02:33N 54°35' E 010°40'1010.3
2014-Jul-19 01:33N 54°36' E 010°58'1111.1
2014-Jul-19 00:33N 54°34' E 011°17'1111.3
2014-Jul-18 23:33N 54°30' E 011°34'1110.8
2014-Jul-18 22:33N 54°26' E 011°52'1110.6
2014-Jul-18 21:34N 54°28' E 012°10'1110.7
2014-Jul-18 20:31N 54°38' E 012°17'1110.9
2014-Jul-18 19:33N 54°44' E 012°32'  
Track history (hours):
 
Tides and Currents Weather Stations Pressure Air Temp Water Temp Dewpoint Dewpoint Depression Visibility Wind Speed Wind Dir Waves Ship Positions

Johann Essberger

Last reported at 2014-Jul-28 19:09 UTC. Time now 2014-Jul-28 20:41 UTC.
Position N 53°39' E 009°31'.

Length 100 m; draft 6.5 m.

Type: Ship (hazmat cat B). MMSI: 255804460.

Date/timePositionNaut miles runAvg speedWind from/ knotsBaromVisibWave heightAir tempDewpointWater temp
2014-Jul-28 19:09N 53°39' E 009°31'1 1.9
2014-Jul-28 18:33N 53°40' E 009°30'0 0.3
2014-Jul-28 17:08N 53°41' E 009°30'0 0.0
2014-Jul-28 09:29N 53°41' E 009°30'0 0.0
2014-Jul-28 07:29N 53°41' E 009°30'0 0.0
2014-Jul-28 06:29N 53°41' E 009°30'0 0.0
2014-Jul-28 05:29N 53°41' E 009°30'0 0.0
2014-Jul-28 04:32N 53°41' E 009°30'0 0.1
2014-Jul-28 03:34N 53°40' E 009°30'2 1.5
2014-Jul-28 02:33N 53°39' E 009°31'  
2014-Jul-25 13:33N 53°39' E 009°31'10 9.6
2014-Jul-25 12:33N 53°47' E 009°23'1312.6
2014-Jul-25 11:33N 53°52' E 009°03'1313.0
2014-Jul-25 10:33N 53°54' E 008°41'1514.7
2014-Jul-25 09:33N 53°60' E 008°18'1212.2
2014-Jul-25 08:33N 54°02' E 007°57'1212.3
2014-Jul-25 07:33N 54°07' E 007°39'1212.1
2014-Jul-25 06:33N 54°09' E 007°19'1712.0
2014-Jul-25 05:10N 54°08' E 006°50'711.3
2014-Jul-25 04:33N 54°08' E 006°38'1110.9
2014-Jul-25 03:33N 54°08' E 006°20'1110.7
2014-Jul-25 02:33N 54°06' E 006°02'1010.4
2014-Jul-25 01:33N 54°05' E 005°44'1110.6
2014-Jul-25 00:33N 53°58' E 005°31'1110.5
2014-Jul-24 23:33N 53°51' E 005°17'1010.5
2014-Jul-24 22:33N 53°44' E 005°04'1010.4
2014-Jul-24 21:33N 53°37' E 004°51'1010.1
2014-Jul-24 20:33N 53°27' E 004°45'1010.2
2014-Jul-24 19:32N 53°18' E 004°38'1010.5
2014-Jul-24 18:33N 53°08' E 004°30'1110.9
2014-Jul-24 17:33N 52°59' E 004°21'1111.3
2014-Jul-24 16:33N 52°49' E 004°13'1211.6
2014-Jul-24 15:33N 52°41' E 004°00'1211.8
2014-Jul-24 14:33N 52°32' E 003°46'1111.3
2014-Jul-24 13:33N 52°22' E 003°38'1212.0
2014-Jul-24 12:33N 52°11' E 003°31'1212.0
2014-Jul-24 11:31N 51°59' E 003°23'1111.5
2014-Jul-24 10:33N 51°49' E 003°17'10 9.5
2014-Jul-24 09:32N 51°40' E 003°20'1111.2
2014-Jul-24 08:33N 51°30' E 003°29'9 9.5
2014-Jul-24 07:34N 51°25' E 003°42'10 9.8
2014-Jul-24 06:33N 51°25' E 003°58'1010.2
2014-Jul-24 05:34N 51°22' E 004°13'5 4.7
2014-Jul-24 04:34N 51°18' E 004°17'0 0.0
2014-Jul-23 13:14N 51°18' E 004°17'0 0.4
2014-Jul-23 12:34N 51°18' E 004°17'2 2.1
2014-Jul-23 11:34N 51°17' E 004°20'1 1.5
2014-Jul-23 10:32N 51°15' E 004°22'0 0.0
2014-Jul-21 19:29N 51°15' E 004°22'3 1.2
2014-Jul-21 17:20N 51°18' E 004°20'0 0.0
2014-Jul-20 21:30N 51°18' E 004°20'1 1.2
2014-Jul-20 20:34N 51°17' E 004°20'4 4.3
2014-Jul-20 19:34N 51°20' E 004°16'8 8.3
2014-Jul-20 18:34N 51°22' E 004°03'6 6.4
2014-Jul-20 17:33N 51°21' E 003°53'1010.0
2014-Jul-20 16:33N 51°26' E 003°40'1211.5
2014-Jul-20 15:33N 51°33' E 003°25'1514.0
2014-Jul-20 14:29N 51°47' E 003°14'5413.6
2014-Jul-20 10:29N 52°39' E 003°35'1010.8
2014-Jul-20 09:33N 52°48' E 003°44'10 9.9
2014-Jul-20 08:32N 52°55' E 003°55'4411.1
2014-Jul-20 04:33N 53°29' E 004°41'1211.6
2014-Jul-20 03:33N 53°34' E 004°59'1110.8
2014-Jul-20 02:33N 53°38' E 005°16'1010.0
2014-Jul-20 01:33N 53°41' E 005°33'1010.2
2014-Jul-20 00:33N 53°44' E 005°49'1110.6
2014-Jul-19 23:33N 53°47' E 006°06'1111.2
2014-Jul-19 22:33N 53°50' E 006°24'1212.1
2014-Jul-19 21:33N 53°53' E 006°44'1612.5
2014-Jul-19 20:18N 53°57' E 007°10'1112.5
2014-Jul-19 19:25N 53°60' E 007°28'1112.1
2014-Jul-19 18:33N 54°02' E 007°45'1211.8
2014-Jul-19 17:33N 54°01' E 008°05'1313.1
2014-Jul-19 16:34N 53°59' E 008°27'1111.3
2014-Jul-19 15:33N 53°53' E 008°43'10 9.9
2014-Jul-19 14:33N 53°51' E 008°60'6 5.5
2014-Jul-19 13:31N 53°54' E 009°09'5 5.5
2014-Jul-19 12:33N 53°57' E 009°15'6 6.0
2014-Jul-19 11:33N 54°03' E 009°18'35 5.5
2014-Jul-19 05:12N 54°22' E 010°09'3 5.0
2014-Jul-19 04:31N 54°24' E 010°12'1111.1
2014-Jul-19 03:33N 54°32' E 010°25'9 9.1
2014-Jul-19 02:33N 54°35' E 010°40'1010.3
2014-Jul-19 01:33N 54°36' E 010°58'1111.1
2014-Jul-19 00:33N 54°34' E 011°17'1111.3
2014-Jul-18 23:33N 54°30' E 011°34'1110.8
2014-Jul-18 22:33N 54°26' E 011°52'1110.6
2014-Jul-18 21:34N 54°28' E 012°10'1110.7
2014-Jul-18 20:31N 54°38' E 012°17'1110.9
2014-Jul-18 19:33N 54°44' E 012°32'  

Dump ship's entire track history